createdAt,value
2017-12-04T00:00:44.886Z,28.10
2017-12-04T00:03:13.901Z,29.83
2017-12-04T00:05:42.261Z,28.60
2017-12-04T00:08:10.505Z,28.90
2017-12-04T00:10:38.726Z,29.50
2017-12-04T00:13:06.972Z,27.00
2017-12-04T00:15:35.196Z,27.60
2017-12-04T00:18:03.420Z,29.03
2017-12-04T00:20:31.657Z,27.00
2017-12-04T00:22:59.894Z,28.10
2017-12-04T00:25:28.136Z,28.67
2017-12-04T00:27:56.404Z,29.53
2017-12-04T00:30:24.649Z,28.63
2017-12-04T00:32:53.647Z,27.57
2017-12-04T00:35:21.952Z,30.00
2017-12-04T00:37:50.191Z,29.50
2017-12-04T00:40:18.501Z,30.17
2017-12-04T00:42:46.804Z,31.43
2017-12-04T00:45:15.072Z,29.43
2017-12-04T00:47:44.065Z,29.70
2017-12-04T00:50:12.325Z,31.23
2017-12-04T00:52:41.327Z,29.20
2017-12-04T00:55:09.548Z,31.30
2017-12-04T00:57:37.763Z,32.30
2017-12-04T01:00:06.029Z,30.53
2017-12-04T01:02:34.236Z,29.10
2017-12-04T01:05:02.499Z,30.30
2017-12-04T01:07:30.854Z,30.07
2017-12-04T01:09:59.300Z,32.70
2017-12-04T01:12:28.277Z,31.97
2017-12-04T01:14:56.504Z,30.97
2017-12-04T01:17:24.728Z,31.13
2017-12-04T01:19:53.007Z,32.93
2017-12-04T01:22:21.242Z,33.53
2017-12-04T01:24:49.524Z,31.20
2017-12-04T01:27:17.740Z,33.00
2017-12-04T01:29:46.042Z,31.90
2017-12-04T01:32:14.267Z,32.97
2017-12-04T01:34:42.494Z,31.97
2017-12-04T01:37:11.494Z,32.10
2017-12-04T01:39:40.590Z,34.43
2017-12-04T01:42:08.874Z,33.17
2017-12-04T01:44:37.969Z,33.17
2017-12-04T01:47:06.351Z,31.80
2017-12-04T01:49:34.592Z,29.97
2017-12-04T01:52:02.931Z,32.80
2017-12-04T01:54:31.188Z,31.93
2017-12-04T01:56:59.418Z,30.97
2017-12-04T01:59:28.654Z,32.10
2017-12-04T02:01:56.876Z,30.13
2017-12-04T02:04:25.082Z,29.40
2017-12-04T02:06:53.346Z,32.57
2017-12-04T02:09:22.352Z,28.83
2017-12-04T02:11:50.579Z,29.07
2017-12-04T02:14:18.852Z,32.37
2017-12-04T02:16:47.126Z,30.40
2017-12-04T02:19:15.565Z,30.67
2017-12-04T02:21:43.797Z,30.00
2017-12-04T02:24:12.813Z,30.93
2017-12-04T02:26:41.080Z,31.77
2017-12-04T02:29:09.294Z,31.77
2017-12-04T02:31:37.491Z,32.70
2017-12-04T02:34:05.852Z,32.80
2017-12-04T02:36:34.107Z,33.53
2017-12-04T02:39:03.110Z,32.90
2017-12-04T02:41:31.387Z,31.73
2017-12-04T02:43:59.919Z,29.47
2017-12-04T02:46:28.188Z,30.90
2017-12-04T02:48:56.388Z,33.40
2017-12-04T02:51:24.659Z,31.23
2017-12-04T02:53:53.049Z,31.63
2017-12-04T02:56:21.268Z,32.73
2017-12-04T02:58:49.506Z,31.57
2017-12-04T03:01:17.715Z,31.03
2017-12-04T03:03:45.988Z,33.53
2017-12-04T03:06:15.090Z,32.03
2017-12-04T03:08:44.970Z,33.60
2017-12-04T03:11:13.207Z,31.13
2017-12-04T03:13:41.468Z,30.33
2017-12-04T03:16:09.783Z,26.33
2017-12-04T03:18:38.106Z,29.13
2017-12-04T03:21:06.427Z,31.43
2017-12-04T03:23:34.655Z,31.67
2017-12-04T03:26:02.892Z,28.60
2017-12-04T03:28:31.116Z,28.90
2017-12-04T03:31:00.340Z,28.57
2017-12-04T03:33:28.575Z,30.63
2017-12-04T03:35:56.931Z,29.80
2017-12-04T03:38:25.140Z,32.97
2017-12-04T03:40:53.396Z,31.50
2017-12-04T03:43:21.644Z,29.97
2017-12-04T03:45:49.822Z,31.70
2017-12-04T03:48:18.136Z,30.60
2017-12-04T03:50:47.096Z,29.63
2017-12-04T03:53:15.325Z,31.73
2017-12-04T03:55:44.332Z,28.70
2017-12-04T03:58:12.535Z,29.10
2017-12-04T04:00:40.893Z,29.27
2017-12-04T04:03:09.131Z,28.40
2017-12-04T04:05:38.100Z,28.43
2017-12-04T04:08:06.344Z,29.90
2017-12-04T04:10:34.703Z,29.30
2017-12-04T04:13:02.953Z,26.57
2017-12-04T04:15:31.163Z,28.60
2017-12-04T04:17:59.423Z,27.53
2017-12-04T04:20:29.367Z,29.87
2017-12-04T04:22:59.171Z,25.87
2017-12-04T04:25:28.472Z,27.73
2017-12-04T04:27:56.745Z,26.90
2017-12-04T04:30:24.947Z,28.33
2017-12-04T04:32:53.187Z,29.40
2017-12-04T04:35:21.392Z,28.10
2017-12-04T04:37:49.628Z,27.93
2017-12-04T04:40:17.885Z,26.87
2017-12-04T04:42:46.259Z,24.77
2017-12-04T04:45:14.479Z,25.50
2017-12-04T04:47:42.755Z,25.20
2017-12-04T04:50:10.924Z,26.03
2017-12-04T04:52:39.931Z,25.50
2017-12-04T04:55:08.972Z,27.27
2017-12-04T04:57:37.167Z,27.20
2017-12-04T05:00:05.450Z,26.37
2017-12-04T05:02:33.731Z,23.87
2017-12-04T05:05:02.027Z,25.63
2017-12-04T05:07:30.245Z,27.23
2017-12-04T05:09:59.245Z,28.10
2017-12-04T05:12:28.340Z,30.00
2017-12-04T05:14:56.915Z,28.10
2017-12-04T05:17:25.356Z,26.30
2017-12-04T05:19:53.573Z,25.83
2017-12-04T05:22:21.806Z,27.30
2017-12-04T05:24:50.012Z,26.60
2017-12-04T05:27:18.264Z,25.47
2017-12-04T05:29:47.336Z,24.50
2017-12-04T05:32:15.583Z,23.67
2017-12-04T05:34:43.834Z,23.73
2017-12-04T05:37:12.119Z,28.10
2017-12-04T05:39:40.315Z,26.30
2017-12-04T05:42:08.573Z,25.47
2017-12-04T05:44:36.897Z,24.03
2017-12-04T05:47:05.899Z,25.20
2017-12-04T05:49:34.884Z,23.67
2017-12-04T05:52:03.884Z,24.47
2017-12-04T05:54:32.179Z,24.53
2017-12-04T05:57:00.483Z,27.70
2017-12-04T05:59:29.534Z,24.47
2017-12-04T06:01:57.732Z,25.80
2017-12-04T06:04:26.216Z,23.90
2017-12-04T06:06:55.183Z,25.50
2017-12-04T06:09:24.200Z,25.07
2017-12-04T06:11:53.144Z,25.30
2017-12-04T06:14:21.425Z,24.70
2017-12-04T06:16:49.645Z,23.23
2017-12-04T06:19:18.711Z,23.50
2017-12-04T06:21:47.710Z,23.47
2017-12-04T06:24:16.911Z,26.27
2017-12-04T06:26:45.918Z,24.20
2017-12-04T06:29:14.875Z,24.80
2017-12-04T06:31:43.092Z,22.80
2017-12-04T06:34:12.147Z,24.10
2017-12-04T06:36:40.374Z,25.40
2017-12-04T06:39:09.380Z,25.50
2017-12-04T06:41:37.668Z,25.80
2017-12-04T06:44:05.884Z,26.57
2017-12-04T06:46:34.245Z,25.30
2017-12-04T06:49:02.458Z,25.33
2017-12-04T06:51:31.427Z,25.80
2017-12-04T06:53:59.651Z,28.43
2017-12-04T06:56:28.022Z,26.13
2017-12-04T06:58:56.318Z,27.10
2017-12-04T07:01:24.523Z,24.43
2017-12-04T07:03:52.779Z,25.70
2017-12-04T07:06:21.085Z,25.27
2017-12-04T07:08:50.268Z,24.93
2017-12-04T07:11:19.258Z,26.30
2017-12-04T07:13:47.581Z,24.17
2017-12-04T07:16:16.567Z,25.60
2017-12-04T07:18:44.783Z,23.47
2017-12-04T07:21:13.063Z,24.20
2017-12-04T07:23:41.427Z,22.80
2017-12-04T07:26:09.623Z,24.63
2017-12-04T07:28:37.856Z,25.40
2017-12-04T07:31:06.120Z,24.00
2017-12-04T07:33:35.228Z,25.97
2017-12-04T07:36:03.465Z,26.07
2017-12-04T07:38:31.801Z,24.00
2017-12-04T07:41:00.035Z,26.13
2017-12-04T07:43:28.241Z,25.27
2017-12-04T07:45:57.265Z,24.27
2017-12-04T07:48:25.495Z,23.60
2017-12-04T07:50:54.474Z,25.50
2017-12-04T07:53:22.714Z,25.60
2017-12-04T07:55:50.937Z,23.23
2017-12-04T07:58:19.225Z,22.90
2017-12-04T08:00:47.427Z,25.63
2017-12-04T08:03:15.648Z,25.47
2017-12-04T08:05:44.692Z,23.20
2017-12-04T08:08:12.909Z,22.60
2017-12-04T08:10:41.187Z,23.50
2017-12-04T08:13:09.430Z,25.27
2017-12-04T08:15:37.687Z,22.13
2017-12-04T08:18:05.951Z,24.03
2017-12-04T08:20:34.226Z,24.20
2017-12-04T08:23:02.475Z,26.63
2017-12-04T08:25:30.786Z,22.97
2017-12-04T08:27:58.978Z,24.73
2017-12-04T08:30:27.261Z,21.20
2017-12-04T08:32:55.505Z,23.07
2017-12-04T08:35:23.740Z,23.40
2017-12-04T08:37:52.923Z,24.73
2017-12-04T08:40:21.253Z,24.50
2017-12-04T08:42:49.460Z,22.83
2017-12-04T08:45:17.724Z,23.20
2017-12-04T08:47:46.067Z,23.97
2017-12-04T08:50:14.335Z,23.00
2017-12-04T08:52:42.542Z,22.47
2017-12-04T08:55:11.771Z,23.43
2017-12-04T08:57:40.092Z,21.53
2017-12-04T09:00:08.586Z,23.70
2017-12-04T09:02:36.887Z,22.90
2017-12-04T09:05:05.223Z,22.50
2017-12-04T09:07:34.215Z,22.57
2017-12-04T09:10:02.436Z,21.83
2017-12-04T09:12:30.660Z,23.20
2017-12-04T09:14:59.140Z,21.87
2017-12-04T09:17:28.351Z,22.50
2017-12-04T09:19:57.197Z,23.00
2017-12-04T09:22:25.422Z,21.30
2017-12-04T09:24:54.536Z,23.23
2017-12-04T09:27:22.743Z,21.00
2017-12-04T09:29:50.984Z,23.37
2017-12-04T09:32:19.969Z,21.50
2017-12-04T09:34:48.338Z,20.70
2017-12-04T09:37:16.642Z,22.70
2017-12-04T09:39:45.009Z,22.23
2017-12-04T09:42:13.256Z,24.07
2017-12-04T09:44:41.479Z,22.33
2017-12-04T09:47:09.986Z,22.60
2017-12-04T09:49:40.508Z,25.03
2017-12-04T09:52:09.711Z,22.93
2017-12-04T09:54:37.981Z,21.40
2017-12-04T09:57:06.195Z,23.90
2017-12-04T09:59:34.435Z,20.43
2017-12-04T10:02:02.644Z,21.23
2017-12-04T10:04:32.155Z,21.53
2017-12-04T10:07:00.454Z,21.17
2017-12-04T10:09:28.708Z,20.37
2017-12-04T10:11:56.905Z,21.20
2017-12-04T10:14:25.158Z,21.67
2017-12-04T10:16:53.441Z,22.80
2017-12-04T10:19:21.675Z,23.57
2017-12-04T10:21:49.980Z,21.53
2017-12-04T10:24:18.228Z,22.60
2017-12-04T10:26:46.498Z,22.67
2017-12-04T10:29:14.731Z,21.90
2017-12-04T10:31:42.953Z,21.00
2017-12-04T10:34:11.948Z,23.37
2017-12-04T10:36:40.390Z,21.37
2017-12-04T10:39:09.342Z,21.47
2017-12-04T10:41:37.624Z,21.23
2017-12-04T10:44:06.052Z,22.60
2017-12-04T10:46:35.788Z,21.57
2017-12-04T10:49:04.087Z,22.43
2017-12-04T10:51:32.499Z,21.07
2017-12-04T10:54:02.469Z,21.60
2017-12-04T10:56:31.949Z,21.03
2017-12-04T10:59:00.915Z,22.10
2017-12-04T11:01:29.194Z,21.33
2017-12-04T11:03:57.486Z,22.40
2017-12-04T11:06:25.770Z,20.07
2017-12-04T11:08:53.988Z,22.90
2017-12-04T11:11:22.228Z,21.43
2017-12-04T11:13:50.456Z,20.87
2017-12-04T11:16:19.362Z,19.53
2017-12-04T11:18:47.632Z,20.90
2017-12-04T11:21:15.858Z,21.90
2017-12-04T11:23:44.102Z,21.17
2017-12-04T11:26:16.264Z,20.30
2017-12-04T11:29:04.884Z,20.90
2017-12-04T11:31:33.092Z,21.10
2017-12-04T11:34:01.331Z,20.20
2017-12-04T11:36:30.687Z,20.67
2017-12-04T11:38:59.041Z,21.00
2017-12-04T11:41:27.231Z,20.27
2017-12-04T11:43:55.520Z,20.77
2017-12-04T11:46:23.819Z,19.80
2017-12-04T11:48:52.063Z,20.70
2017-12-04T11:51:20.388Z,20.30
2017-12-04T11:53:48.635Z,20.70
2017-12-04T11:56:16.844Z,20.50
2017-12-04T11:58:45.103Z,19.47
2017-12-04T12:01:13.453Z,21.70
2017-12-04T12:03:41.708Z,19.47
2017-12-04T12:06:09.976Z,22.33
2017-12-04T12:08:38.959Z,21.30
2017-12-04T12:11:08.932Z,21.43
2017-12-04T12:13:37.150Z,19.77
2017-12-04T12:16:06.828Z,20.80
2017-12-04T12:18:35.139Z,19.73
2017-12-04T12:21:04.439Z,20.17
2017-12-04T12:23:32.704Z,21.30
2017-12-04T12:26:01.016Z,21.27
2017-12-04T12:28:29.360Z,19.13
2017-12-04T12:30:57.707Z,21.87
2017-12-04T12:33:26.782Z,19.60
2017-12-04T12:35:55.965Z,21.90
2017-12-04T12:38:25.068Z,21.67
2017-12-04T12:40:55.920Z,19.90
2017-12-04T12:43:24.134Z,21.23
2017-12-04T12:45:52.381Z,21.83
2017-12-04T12:48:22.118Z,20.70
2017-12-04T12:50:50.349Z,21.47
2017-12-04T12:53:18.582Z,21.07
2017-12-04T12:55:46.864Z,23.23
2017-12-04T12:58:17.060Z,21.83
2017-12-04T13:00:46.101Z,23.07
2017-12-04T13:03:14.336Z,22.33
2017-12-04T13:05:44.128Z,22.97
2017-12-04T13:08:12.370Z,21.03
2017-12-04T13:10:41.412Z,21.17
2017-12-04T13:13:09.614Z,21.47
2017-12-04T13:15:38.929Z,22.10
2017-12-04T13:18:08.231Z,20.60
2017-12-04T13:20:36.452Z,21.60
2017-12-04T13:23:05.645Z,22.03
2017-12-04T13:25:34.640Z,24.67
2017-12-04T13:28:02.867Z,26.20
2017-12-04T13:30:32.561Z,25.63
2017-12-04T13:33:12.528Z,22.90
2017-12-04T13:35:52.532Z,23.60
2017-12-04T13:38:21.281Z,24.87
2017-12-04T13:40:51.172Z,23.17
2017-12-04T13:43:19.451Z,23.47
2017-12-04T13:45:47.750Z,22.80
2017-12-04T13:48:16.051Z,23.97
2017-12-04T13:50:44.295Z,23.63
2017-12-04T13:53:12.542Z,23.80
2017-12-04T13:55:40.769Z,23.37
2017-12-04T13:58:09.046Z,22.43
2017-12-04T14:00:38.065Z,22.80
2017-12-04T14:03:06.354Z,22.73
2017-12-04T14:05:34.607Z,23.57
2017-12-04T14:08:03.674Z,22.40
2017-12-04T14:10:31.921Z,21.37
2017-12-04T14:13:00.229Z,22.23
2017-12-04T14:15:28.479Z,22.23
2017-12-04T14:47:57.583Z,20.97
2017-12-04T14:50:25.726Z,23.27
2017-12-04T14:52:54.173Z,24.00
2017-12-04T14:58:02.445Z,21.60
2017-12-04T15:00:30.631Z,20.57
2017-12-04T15:17:57.785Z,21.30
2017-12-04T15:20:33.142Z,21.03
2017-12-04T15:23:08.309Z,19.23
2017-12-04T15:25:37.223Z,20.70
2017-12-04T15:30:30.352Z,21.73
2017-12-04T15:32:58.508Z,22.20
2017-12-04T15:35:26.639Z,21.77
2017-12-04T15:37:54.781Z,22.53
2017-12-04T15:40:22.934Z,20.80
2017-12-04T15:42:51.069Z,21.70
2017-12-04T15:45:19.998Z,22.93
2017-12-04T15:47:48.785Z,23.70
2017-12-04T15:50:17.353Z,21.50
2017-12-04T15:52:45.489Z,22.10
2017-12-04T15:55:13.629Z,22.27
2017-12-04T15:57:42.549Z,22.00
2017-12-04T16:00:11.458Z,23.87
2017-12-04T16:02:40.412Z,21.90
2017-12-04T16:05:08.571Z,24.47
2017-12-04T16:07:37.024Z,23.73
2017-12-04T16:10:05.356Z,24.60
2017-12-04T16:12:33.566Z,23.97
2017-12-04T16:15:01.722Z,21.93
2017-12-04T16:17:29.910Z,22.50
2017-12-04T16:19:58.694Z,23.43
2017-12-04T16:22:28.780Z,23.23
2017-12-04T16:24:58.743Z,22.50
2017-12-04T16:27:27.672Z,23.53
2017-12-04T16:29:55.845Z,23.23
2017-12-04T16:32:23.972Z,24.67
2017-12-04T16:34:52.130Z,25.97
2017-12-04T16:37:20.790Z,24.07
2017-12-04T16:39:50.590Z,24.00
2017-12-04T16:42:18.736Z,21.50
2017-12-04T16:44:46.906Z,23.70
2017-12-04T16:47:15.826Z,23.57
2017-12-04T16:49:43.982Z,21.90
2017-12-04T16:52:12.155Z,21.10
2017-12-04T16:54:40.335Z,21.53
2017-12-04T16:57:08.615Z,22.33
2017-12-04T16:59:37.437Z,21.70
2017-12-04T17:02:05.612Z,20.10
2017-12-04T17:04:34.404Z,22.47
2017-12-04T17:07:02.790Z,22.40
2017-12-04T17:09:31.020Z,20.97
2017-12-04T17:11:59.158Z,22.47
2017-12-04T17:14:27.432Z,21.57
2017-12-04T17:16:55.517Z,21.17
2017-12-04T17:19:23.658Z,22.37
2017-12-04T17:21:51.869Z,21.53
2017-12-04T17:24:20.013Z,22.60
2017-12-04T17:26:48.211Z,24.40
2017-12-04T17:29:16.379Z,24.20
2017-12-04T17:31:44.541Z,21.67
2017-12-04T17:34:12.673Z,23.50
2017-12-04T17:36:41.941Z,22.37
2017-12-04T17:39:10.069Z,24.20
2017-12-04T17:41:39.028Z,23.40
2017-12-04T17:44:08.071Z,24.70
2017-12-04T17:46:36.217Z,22.30
2017-12-04T17:49:04.371Z,22.40
2017-12-04T17:51:32.542Z,23.97
2017-12-04T17:54:00.725Z,23.70
2017-12-04T17:56:29.698Z,23.73
2017-12-04T17:58:58.737Z,25.00
2017-12-04T18:01:26.879Z,22.83
2017-12-04T18:03:55.025Z,22.87
2017-12-04T18:06:23.934Z,22.87
2017-12-04T18:08:52.780Z,22.33
2017-12-04T18:11:20.923Z,22.93
2017-12-04T18:13:49.089Z,22.00
2017-12-04T18:16:17.264Z,23.57
2017-12-04T18:18:46.171Z,21.60
2017-12-04T18:21:15.455Z,25.87
2017-12-04T18:23:43.617Z,23.20
2017-12-04T18:26:12.494Z,23.60
2017-12-04T18:28:40.674Z,23.30
2017-12-04T18:31:09.582Z,21.53
2017-12-04T18:33:39.499Z,20.73
2017-12-04T18:36:07.653Z,20.80
2017-12-04T18:38:35.821Z,19.80
2017-12-04T18:41:03.970Z,22.27
2017-12-04T18:43:32.980Z,20.43
2017-12-04T18:46:01.903Z,21.33
2017-12-04T18:48:30.065Z,22.27
2017-12-04T18:50:58.994Z,19.60
2017-12-04T18:53:27.150Z,21.27
2017-12-04T18:55:55.294Z,21.13
2017-12-04T18:58:23.499Z,22.10
2017-12-04T19:00:51.683Z,23.37
2017-12-04T19:03:20.815Z,22.90
2017-12-04T19:05:49.950Z,22.37
2017-12-04T19:08:18.856Z,21.37
2017-12-04T19:10:47.238Z,21.17
2017-12-04T19:13:15.383Z,21.50
2017-12-04T19:15:44.319Z,21.17
2017-12-04T19:18:13.242Z,21.50
2017-12-04T19:20:41.422Z,20.20
2017-12-04T19:23:09.593Z,20.90
2017-12-04T19:25:43.958Z,20.40
2017-12-04T19:28:22.840Z,20.37
2017-12-04T19:30:58.734Z,21.17
2017-12-04T19:33:36.432Z,20.53
2017-12-04T19:36:09.971Z,20.67
2017-12-04T19:38:47.833Z,19.87
2017-12-04T19:41:18.071Z,20.60
2017-12-04T19:43:47.456Z,21.27
2017-12-04T19:46:15.591Z,22.90
2017-12-04T19:48:44.435Z,20.20
2017-12-04T19:51:12.592Z,22.23
2017-12-04T19:53:41.256Z,23.90
2017-12-04T19:56:09.436Z,21.90
2017-12-04T19:58:37.566Z,21.33
2017-12-04T20:01:06.525Z,21.10
2017-12-04T20:03:34.648Z,20.83
2017-12-04T20:06:03.190Z,21.50
2017-12-04T20:08:31.879Z,21.77
2017-12-04T20:11:00.026Z,22.33
2017-12-04T20:13:29.196Z,21.97
2017-12-04T20:15:57.350Z,22.90
2017-12-04T20:18:27.358Z,21.53
2017-12-04T20:20:56.295Z,22.37
2017-12-04T20:23:30.874Z,20.80
2017-12-04T20:26:04.631Z,21.80
2017-12-04T20:28:38.693Z,20.60
2017-12-04T20:31:12.105Z,22.43
2017-12-04T20:33:48.592Z,21.87
2017-12-04T20:36:27.138Z,20.83
2017-12-04T20:39:05.072Z,22.73
2017-12-04T20:41:44.429Z,23.17
2017-12-04T20:44:26.826Z,22.53
2017-12-04T20:47:01.810Z,21.03
2017-12-04T20:49:35.716Z,21.37
2017-12-04T20:52:13.274Z,23.30
2017-12-04T20:54:51.581Z,20.93
2017-12-04T20:57:30.371Z,21.10
2017-12-04T21:00:06.499Z,23.00
2017-12-04T21:02:45.839Z,21.60
2017-12-04T21:05:26.604Z,21.97
2017-12-04T21:08:07.112Z,20.67
2017-12-04T21:10:48.287Z,20.67
2017-12-04T21:13:28.970Z,22.30
2017-12-04T21:16:13.898Z,21.50
2017-12-04T21:18:42.030Z,23.90
2017-12-04T21:21:10.965Z,22.87
2017-12-04T21:23:39.788Z,23.77
2017-12-04T21:26:07.925Z,22.60
2017-12-04T21:28:36.849Z,21.50
2017-12-04T21:31:05.530Z,22.90
2017-12-04T21:33:34.447Z,22.57
2017-12-04T21:36:02.606Z,21.60
2017-12-04T21:38:31.535Z,22.20
2017-12-04T21:40:59.693Z,21.40
2017-12-04T21:43:28.610Z,20.67
2017-12-04T21:45:58.348Z,22.10
2017-12-04T21:48:26.507Z,21.87
2017-12-04T21:50:55.409Z,21.50
2017-12-04T21:53:24.314Z,21.20
2017-12-04T21:55:53.240Z,22.60
2017-12-04T21:58:21.389Z,23.63
2017-12-04T22:00:49.551Z,21.43
2017-12-04T22:03:17.683Z,21.73
2017-12-04T22:05:46.598Z,21.10
2017-12-04T22:08:14.752Z,21.47
2017-12-04T22:10:42.929Z,22.07
2017-12-04T22:13:11.077Z,21.77
2017-12-04T22:15:39.227Z,21.53
2017-12-04T22:18:08.129Z,21.20
2017-12-04T22:20:36.307Z,22.37
2017-12-04T22:23:04.500Z,22.70
2017-12-04T22:25:32.654Z,21.20
2017-12-04T22:28:00.797Z,21.67
2017-12-04T22:30:28.943Z,21.93
2017-12-04T22:32:57.097Z,21.80
2017-12-04T22:35:25.258Z,22.20
2017-12-04T22:37:53.415Z,20.50
2017-12-04T22:40:21.560Z,21.07
2017-12-04T22:42:50.172Z,20.80
2017-12-04T22:45:18.327Z,21.50
2017-12-04T22:47:47.260Z,20.93
2017-12-04T22:50:17.165Z,21.47
2017-12-04T22:52:45.330Z,21.13
2017-12-04T22:55:13.473Z,22.63
2017-12-04T22:57:41.616Z,20.70
2017-12-04T23:00:09.777Z,22.20
2017-12-04T23:02:38.225Z,20.53
2017-12-04T23:05:06.369Z,21.67
2017-12-04T23:07:35.308Z,21.03
2017-12-04T23:10:03.457Z,21.10
2017-12-04T23:12:31.596Z,20.80
2017-12-04T23:14:59.740Z,22.73
2017-12-04T23:17:27.959Z,20.73
2017-12-04T23:19:56.090Z,22.73
2017-12-04T23:22:25.610Z,19.93
2017-12-04T23:24:54.495Z,21.50
2017-12-04T23:27:23.442Z,20.20
2017-12-04T23:29:51.582Z,23.17
2017-12-04T23:32:19.720Z,24.00
2017-12-04T23:34:47.881Z,23.33
2017-12-04T23:37:16.771Z,25.47
2017-12-04T23:39:45.678Z,21.80
2017-12-04T23:42:14.602Z,21.43
2017-12-04T23:44:43.497Z,20.67
2017-12-04T23:47:11.655Z,22.00
2017-12-04T23:49:39.775Z,20.63
2017-12-04T23:52:07.918Z,21.43
2017-12-04T23:54:36.061Z,21.20
2017-12-04T23:57:04.191Z,21.37
2017-12-04T23:59:32.341Z,21.57
